SEGU/GYE METAR and TAF weather

Enter ICAO airport designator
Station Type Date Time Source
SEGU METAR 2020/09/19 05:00 UTC NOAA

SEGU 190500Z 22012KT 9999 FEW010 SCT100 22/19 Q1012 NOSIG RMK A2990


Station Type Date Time Source
SEGU Decoded METAR 2020/09/19 05:00 UTC NOAA

Guayaquil / Simon Bolivar, Ecuador (SEGU) 02-09S 079-53W 9M
Sep 19, 2020 - 01:00 AM EDT / 2020.09.19 0500 UTC
Wind: from the SW (220 degrees) at 14 MPH (12 KT):0
Visibility: greater than 7 mile(s):0
Sky conditions: partly cloudy
Temperature: 71 F (22 C)
Dew Point: 66 F (19 C)
Relative Humidity: 83%
Pressure (altimeter): 29.88 in. Hg (1012 hPa)
ob: SEGU 190500Z 22012KT 9999 FEW010 SCT100 22/19 Q1012 NOSIG RMK A2990
cycle: 5

Station Type Date Time Source
SEGU TAF 2020/09/19 06:17 UTC NOAA

TAF SEGU 190400Z 1906/2006 21006KT 9999 SCT023 SCT100
BECMG 1912/1914 15005KT
BECMG 1923/1924 FEW020 SCT026 TX31/1920Z TN22/1910Z

Example: see airport list